Gales Ferry, Connecticut
Current Conditions -  °F | °C
As of 2:56 PM on Sunday 21 Dec 2014 (Local Time) from KGON Reporting Station
Overcast Overcast  
Wind Chill: 31°   Ceiling: 3500
Heat Index: 37°   Visibility: 8mi
Dew Point: 35°   Wind: 8mph
Humidity: 93%   Direction: 20°NNE
Pressure: 30.26"   Gusts: NA
Location:  41.43°N, 72.08°W
Report Text: KGON 211956Z 02007KT 8SM BKN035 OVC043 03/02 A3026 RMK AO2 RAE03B17E41 SLP246 P0000 T00280017
Loading
Personal Weather Stations






























Interactive Weather Map New forecast layout! Learn more

10-Day Weather Forecast

Advertisements
Track Severe Weather on mobile